»·PEaware :: N576TB KLWL-KMLF

N576TB :: KLWL-KMLF

FLIGHT INFORMATION

Flight Status: Arrived
Operator: Privately registered:
United States
More flights under this callsign
Pilot: Anonymous 8274 (8274)
Aircraft: BEECH AIRCRAFT DEBONAIR BONANZA
(BE33)
More flights by this aircraft type
Origin: KLWL Wells Mun/Harriet
United States
Destination: KMLF Milford Mun
United States
More flights between these airports :: More routes between these airports
Route:
File this flight plan on PilotEdge
Remarks:
Altitude:
(Current/Filed)
9,500ft
Speed:
(Current/Filed)
150kts
Departed: 14-Sep-18 10:53 AM
Arrived: 14-Sep-18 01:12 PM
Distance/Time
Traveled:
184nm/2:19
Distance/Time
To Go:
Arrived

Flight Plot

Page will automatically refresh every two minutes.

Flight plan parsing failed; only flown route is shown


Map Options




Map Legend


Flown Route
Filed Route
Departure Airport
Arrival Airport
Navaid (VOR, NDB)
Fix

Horizontal Profiles

Position Reports

Time Latitude Longitude Heading Altitude Ground
Speed
14-Sep-18 10:19 41.115679 -114.926959 190 5731ft 0kts
14-Sep-18 10:20 41.115679 -114.926959 190 5731ft 0kts
14-Sep-18 10:21 41.115679 -114.926959 190 5731ft 0kts
14-Sep-18 10:22 41.115679 -114.926959 190 5731ft 0kts
14-Sep-18 10:23 41.115679 -114.926959 190 5731ft 0kts
14-Sep-18 10:24 41.115679 -114.926959 190 5731ft 0kts
14-Sep-18 10:25 41.115679 -114.926959 190 5731ft 0kts
14-Sep-18 10:26 41.115679 -114.926959 190 5731ft 0kts
14-Sep-18 10:27 41.115679 -114.926959 190 5731ft 0kts
14-Sep-18 10:32 41.115679 -114.926959 190 5731ft 0kts
14-Sep-18 10:33 41.115679 -114.926959 190 5731ft 0kts
14-Sep-18 10:34 41.115679 -114.926959 190 5731ft 0kts
14-Sep-18 10:35 41.115679 -114.926959 190 5731ft 0kts
14-Sep-18 10:36 41.115679 -114.926959 190 5731ft 0kts
14-Sep-18 10:37 41.115679 -114.926959 190 5731ft 0kts
14-Sep-18 10:38 41.115679 -114.926959 190 5731ft 0kts
14-Sep-18 10:39 41.115679 -114.926959 190 5731ft 0kts
14-Sep-18 10:40 41.115679 -114.926959 190 5731ft 0kts
14-Sep-18 10:41 41.115679 -114.926959 190 5731ft 0kts
14-Sep-18 10:42 41.115630 -114.926972 190 5732ft 0kts
14-Sep-18 10:43 41.115509 -114.926770 100 5732ft 2kts
14-Sep-18 10:44 41.115131 -114.925308 77 5736ft 10kts
14-Sep-18 10:45 41.115949 -114.924492 26 5737ft 0kts
14-Sep-18 10:46 41.116543 -114.926907 278 5730ft 16kts
14-Sep-18 10:47 41.116905 -114.932162 332 5707ft 0kts
14-Sep-18 10:48 41.116905 -114.932162 332 5707ft 0kts
14-Sep-18 10:49 41.116905 -114.932162 332 5707ft 0kts
14-Sep-18 10:50 41.116905 -114.932162 332 5707ft 0kts
14-Sep-18 10:51 41.116905 -114.932162 332 5707ft 0kts
14-Sep-18 10:52 41.116905 -114.932162 332 5707ft 0kts
14-Sep-18 10:53 41.116905 -114.932162 332 5707ft 0kts
14-Sep-18 10:54 41.117112 -114.930780 98 5713ft 36kts
14-Sep-18 10:55 41.114655 -114.903481 88 6115ft 79kts
14-Sep-18 10:56 41.105137 -114.879841 171 6610ft 91kts
14-Sep-18 10:57 41.100487 -114.909430 283 7086ft 101kts
14-Sep-18 10:58 41.103040 -114.947495 286 7599ft 104kts
14-Sep-18 10:59 41.110514 -114.983254 286 8156ft 98kts
14-Sep-18 11:00 41.118604 -115.019444 286 8579ft 106kts
14-Sep-18 11:01 41.118214 -115.059110 261 8990ft 111kts
14-Sep-18 11:02 41.113329 -115.099938 260 9392ft 112kts
14-Sep-18 11:03 41.108118 -115.143176 260 9530ft 131kts
14-Sep-18 11:04 41.102063 -115.193667 260 9526ft 143kts
14-Sep-18 11:05 41.092931 -115.245863 254 9524ft 147kts
14-Sep-18 11:06 41.082259 -115.298564 254 9524ft 148kts
14-Sep-18 11:07 41.071599 -115.351120 254 9525ft 149kts
14-Sep-18 11:08 41.045785 -115.392856 221 9524ft 151kts
14-Sep-18 11:09 41.014229 -115.429886 221 9524ft 152kts
14-Sep-18 11:10 40.982830 -115.466699 221 9524ft 152kts
14-Sep-18 11:11 40.951907 -115.466012 132 9528ft 151kts
14-Sep-18 11:12 40.920202 -115.416224 129 9524ft 152kts
14-Sep-18 11:13 40.900500 -115.377668 120 9524ft 152kts
14-Sep-18 11:14 40.879148 -115.330358 120 9524ft 152kts
14-Sep-18 11:15 40.858266 -115.271433 112 9524ft 152kts
14-Sep-18 11:16 40.844631 -115.228544 112 9523ft 151kts
14-Sep-18 11:17 40.828748 -115.178556 112 9523ft 145kts
14-Sep-18 11:18 40.804221 -115.141458 180 9519ft 144kts
14-Sep-18 11:19 40.769757 -115.166448 213 9524ft 143kts
14-Sep-18 11:20 40.736533 -115.195741 213 9524ft 143kts
14-Sep-18 11:21 40.703120 -115.225195 213 9524ft 145kts
14-Sep-18 11:22 40.668176 -115.252310 202 9524ft 146kts
14-Sep-18 11:23 40.630665 -115.273098 202 9524ft 147kts
14-Sep-18 11:24 40.593124 -115.294259 205 9524ft 147kts
14-Sep-18 11:25 40.556599 -115.318495 212 9523ft 147kts
14-Sep-18 11:26 40.521615 -115.346368 207 9524ft 147kts
14-Sep-18 11:27 40.485687 -115.371267 207 9524ft 147kts
14-Sep-18 11:28 40.449405 -115.396373 207 9524ft 147kts
14-Sep-18 11:29 40.413238 -115.421386 207 9524ft 147kts
14-Sep-18 11:30 40.377071 -115.446384 207 9524ft 147kts
14-Sep-18 11:31 40.337811 -115.461024 192 9524ft 147kts
14-Sep-18 11:32 40.298003 -115.472850 192 9524ft 147kts
14-Sep-18 11:33 40.258064 -115.484698 192 9524ft 147kts
14-Sep-18 11:34 40.218174 -115.496520 192 9524ft 147kts
14-Sep-18 11:35 40.177897 -115.508445 192 9482ft 148kts
14-Sep-18 11:36 40.137860 -115.520288 192 9482ft 147kts
14-Sep-18 11:37 40.097980 -115.532073 192 9483ft 147kts
14-Sep-18 11:38 40.058269 -115.543796 192 9483ft 147kts
14-Sep-18 11:39 40.025825 -115.525225 112 9485ft 146kts
14-Sep-18 11:40 40.011030 -115.475510 111 9483ft 147kts
14-Sep-18 11:41 39.996345 -115.426058 111 9540ft 144kts
14-Sep-18 11:42 39.982750 -115.376897 110 9563ft 145kts
14-Sep-18 11:43 39.970454 -115.326517 108 9563ft 146kts
14-Sep-18 11:44 39.958288 -115.275942 108 9563ft 146kts
14-Sep-18 11:45 39.946140 -115.225386 108 9563ft 146kts
14-Sep-18 11:46 39.934218 -115.174784 108 9563ft 147kts
14-Sep-18 11:47 39.922527 -115.123749 108 9563ft 148kts
14-Sep-18 11:48 39.896843 -115.093116 194 9559ft 140kts
14-Sep-18 11:49 39.864193 -115.120348 214 9564ft 141kts
14-Sep-18 11:50 39.829728 -115.142793 192 9565ft 141kts
14-Sep-18 11:51 39.791285 -115.152930 191 9564ft 141kts
14-Sep-18 11:52 39.754127 -115.142021 153 9564ft 144kts
14-Sep-18 11:53 39.718894 -115.117497 153 9564ft 144kts
14-Sep-18 11:54 39.688676 -115.086091 110 9568ft 147kts
14-Sep-18 11:55 39.675541 -115.035427 110 9564ft 148kts
14-Sep-18 11:56 39.662509 -114.984557 110 9564ft 148kts
14-Sep-18 11:57 39.649500 -114.933743 110 9564ft 149kts
14-Sep-18 11:58 39.636490 -114.882886 110 9564ft 148kts
14-Sep-18 11:59 39.623548 -114.832242 110 9564ft 148kts
14-Sep-18 12:00 39.602775 -114.790075 169 9560ft 142kts
14-Sep-18 12:01 39.564811 -114.801489 196 9564ft 141kts
14-Sep-18 12:02 39.527172 -114.816153 196 9564ft 141kts
14-Sep-18 12:03 39.489654 -114.830769 196 9564ft 141kts
14-Sep-18 12:04 39.454920 -114.812215 143 9564ft 145kts
14-Sep-18 12:05 39.417081 -114.807442 186 9564ft 141kts
14-Sep-18 12:06 39.378052 -114.812988 186 9564ft 141kts
14-Sep-18 12:07 39.338992 -114.818549 186 9564ft 142kts
14-Sep-18 12:08 39.306144 -114.844612 212 9589ft 139kts
14-Sep-18 12:09 39.272313 -114.867920 188 9611ft 140kts
14-Sep-18 12:10 39.233590 -114.864529 161 9610ft 143kts
14-Sep-18 12:11 39.196376 -114.846459 160 9609ft 143kts
14-Sep-18 12:12 39.159135 -114.828281 160 9609ft 143kts
14-Sep-18 12:13 39.124872 -114.801609 146 9609ft 144kts
14-Sep-18 12:14 39.091926 -114.771821 146 9609ft 145kts
14-Sep-18 12:15 39.059993 -114.740365 143 9609ft 145kts
14-Sep-18 12:16 39.028329 -114.708351 143 9609ft 145kts
14-Sep-18 12:17 39.018893 -114.664224 57 9613ft 152kts
14-Sep-18 12:18 39.039502 -114.617535 89 9604ft 150kts
14-Sep-18 12:19 39.029013 -114.566269 108 9609ft 148kts
14-Sep-18 12:20 39.016909 -114.515465 108 9609ft 148kts
14-Sep-18 12:21 39.016214 -114.465203 44 9612ft 152kts
14-Sep-18 12:22 39.055844 -114.446448 15 9609ft 153kts
14-Sep-18 12:23 39.097041 -114.433762 2 9610ft 152kts
14-Sep-18 12:24 39.139327 -114.429868 2 9609ft 153kts
14-Sep-18 12:25 39.181461 -114.423863 26 9604ft 153kts
14-Sep-18 12:26 39.185371 -114.378551 135 9610ft 145kts
14-Sep-18 12:27 39.157477 -114.345778 143 9609ft 145kts
14-Sep-18 12:28 39.125983 -114.313379 140 9608ft 145kts
14-Sep-18 12:29 39.100770 -114.272416 125 9609ft 147kts
14-Sep-18 12:30 39.080654 -114.226633 121 9609ft 147kts
14-Sep-18 12:31 39.060628 -114.180676 121 9609ft 147kts
14-Sep-18 12:32 39.028476 -114.150276 151 9609ft 144kts
14-Sep-18 12:33 38.993966 -114.124168 151 9609ft 144kts
14-Sep-18 12:34 38.963140 -114.091562 133 9609ft 146kts
14-Sep-18 12:35 38.933436 -114.057562 154 9609ft 144kts
14-Sep-18 12:36 38.898202 -114.034605 154 9609ft 144kts
14-Sep-18 12:37 38.862492 -114.011433 154 9610ft 144kts
14-Sep-18 12:38 38.826509 -113.987573 154 9506ft 149kts
14-Sep-18 12:39 38.788606 -113.983898 193 9501ft 140kts
14-Sep-18 12:40 38.753851 -113.973799 134 9504ft 145kts
14-Sep-18 12:41 38.725252 -113.937614 139 9502ft 145kts
14-Sep-18 12:42 38.693512 -113.907032 148 9502ft 143kts
14-Sep-18 12:43 38.659853 -113.879836 152 9502ft 143kts
14-Sep-18 12:44 38.625108 -113.855546 156 9502ft 142kts
14-Sep-18 12:45 38.589704 -113.833113 156 9502ft 142kts
14-Sep-18 12:46 38.560729 -113.800684 122 9502ft 147kts
14-Sep-18 12:47 38.540758 -113.754702 122 9502ft 148kts
14-Sep-18 12:48 38.520912 -113.708845 122 9502ft 148kts
14-Sep-18 12:49 38.501047 -113.662922 122 9502ft 148kts
14-Sep-18 12:50 38.492890 -113.613774 71 9504ft 155kts
14-Sep-18 12:51 38.507962 -113.562181 71 9502ft 155kts
14-Sep-18 12:52 38.522521 -113.510140 86 9499ft 153kts
14-Sep-18 12:53 38.501636 -113.467533 136 9507ft 145kts
14-Sep-18 12:54 38.473875 -113.430128 132 9507ft 146kts
14-Sep-18 12:55 38.452629 -113.385458 123 9506ft 148kts
14-Sep-18 12:56 38.433629 -113.339587 112 9506ft 149kts
14-Sep-18 12:57 38.432593 -113.286468 81 9506ft 154kts
14-Sep-18 12:58 38.444716 -113.233972 75 9505ft 155kts
14-Sep-18 12:59 38.437427 -113.182405 111 9506ft 149kts
14-Sep-18 13:00 38.424111 -113.131701 112 9180ft 152kts
14-Sep-18 13:01 38.410907 -113.081147 111 8669ft 145kts
14-Sep-18 13:02 38.409450 -113.030314 92 8160ft 142kts
14-Sep-18 13:03 38.424250 -112.988585 10 7659ft 144kts
14-Sep-18 13:04 38.456234 -113.005898 275 7168ft 130kts
14-Sep-18 13:05 38.445931 -113.046337 201 6675ft 125kts
14-Sep-18 13:06 38.428830 -113.020947 84 6612ft 123kts
14-Sep-18 13:07 38.433278 -112.973603 110 6603ft 138kts
14-Sep-18 13:08 38.401370 -112.957768 202 6220ft 134kts
14-Sep-18 13:09 38.400900 -112.993116 319 6031ft 122kts
14-Sep-18 13:10 38.433555 -112.998691 358 5859ft 120kts
14-Sep-18 13:11 38.458070 -113.009559 256 5452ft 82kts
14-Sep-18 13:12 38.439116 -113.013075 184 5174ft 73kts
14-Sep-18 13:13 38.422598 -113.013358 179 5041ft 44kts
14-Sep-18 13:14 38.419813 -113.012430 99 5041ft 0kts
14-Sep-18 13:15 38.419813 -113.012430 99 5041ft 0kts
14-Sep-18 13:16 38.419811 -113.012414 98 5040ft 0kts
14-Sep-18 13:17 38.419266 -113.010754 287 5036ft 0kts

Navigation Log

Ident Type
Flight plan parsing failed, navigation log unavailable